Terminal Aerodrome Forecast
Issued by NWS

Home | Current Version | Previous Version | Text Only | Print | Product List | Glossary On
Versions: 1 2 3 4 5 6 7 8 9 10 11 12 13
000
FTUS45 KSLC 250054 AAA
TAFOGD
TAF AMD
KOGD 250054Z 2501/2524 23011KT P6SM VCTS SCT080CB SCT120
     FM250200 21022G38KT 5SM TS HZ SCT040CB BKN080
     FM250230 11020G30KT P6SM VCTS SCT040CB BKN090
     FM250300 10019KT P6SM VCSH SCT050 BKN090
     FM250500 16009KT P6SM SCT100
     FM251200 32006KT P6SM OVC250=

USA.gov is the U.S. government's official web portal to all federal, state and local government web resources and services.